Terminal Aerodrome Forecast
Issued by NWS

Home | Current Version | Previous Version | Text Only | Print | Product List | Glossary On
Versions: 1 2 3 4 5 6 7 8 9 10 11 12 13
309
FTUS45 KFGZ 271140
TAFSEZ
TAF
KSEZ 271140Z 2712/2812 10008KT P6SM VCSH SCT070 OVC120
      TEMPO 2718/2722 P6SM -TSRA BKN050CB
     FM272200 10008KT P6SM OVC100
      TEMPO 2722/2724 -TSRA BKN050CB
     FM280000 09005KT P6SM SCT050 BKN120 PROB30 2800/2806 P6SM -TSRA
      BKN050CB=

USA.gov is the U.S. government's official web portal to all federal, state and local government web resources and services.